createdAt,value
2017-12-28T00:00:06.705Z,0
2017-12-28T00:01:06.990Z,0
2017-12-28T00:02:07.007Z,0
2017-12-28T00:03:07.285Z,0
2017-12-28T00:04:07.052Z,0
2017-12-28T00:05:07.318Z,0
2017-12-28T00:06:07.058Z,0
2017-12-28T00:07:06.795Z,0
2017-12-28T00:08:07.076Z,0
2017-12-28T00:09:06.814Z,0
2017-12-28T00:10:07.109Z,0
2017-12-28T00:11:07.120Z,0
2017-12-28T00:12:06.572Z,0
2017-12-28T00:13:07.142Z,0
2017-12-28T00:14:07.148Z,0
2017-12-28T00:15:07.448Z,0
2017-12-28T00:16:07.449Z,0
2017-12-28T00:17:07.190Z,0
2017-12-28T00:18:07.488Z,0
2017-12-28T00:19:06.940Z,0
2017-12-28T00:20:07.000Z,0
2017-12-28T00:21:06.966Z,0
2017-12-28T00:22:06.986Z,0
2017-12-28T00:23:06.991Z,0
2017-12-28T00:24:06.998Z,0
2017-12-28T00:25:07.614Z,0
2017-12-28T00:26:07.341Z,0
2017-12-28T00:27:07.040Z,0
2017-12-28T00:28:06.774Z,0
2017-12-28T00:29:07.060Z,0
2017-12-28T00:30:07.075Z,0
2017-12-28T00:31:07.659Z,0
2017-12-28T00:32:07.373Z,0
2017-12-28T00:33:07.381Z,0
2017-12-28T00:34:07.411Z,0
2017-12-28T00:35:07.236Z,0
2017-12-28T00:36:06.873Z,0
2017-12-28T00:37:07.161Z,0
2017-12-28T00:38:07.445Z,0
2017-12-28T00:39:07.461Z,0
2017-12-28T00:40:06.934Z,0
2017-12-28T00:41:07.485Z,0
2017-12-28T00:42:07.225Z,0
2017-12-28T00:43:06.965Z,0
2017-12-28T00:44:07.792Z,0
2017-12-28T00:45:07.257Z,0
2017-12-28T00:46:07.271Z,0
2017-12-28T00:47:07.562Z,0
2017-12-28T00:48:07.089Z,0
2017-12-28T00:49:07.580Z,0
2017-12-28T00:50:07.349Z,0
2017-12-28T00:51:07.333Z,0
2017-12-28T00:52:07.623Z,0
2017-12-28T00:53:07.079Z,0
2017-12-28T00:54:07.393Z,0
2017-12-28T00:55:07.927Z,0
2017-12-28T00:56:07.694Z,0
2017-12-28T00:57:07.129Z,0
2017-12-28T00:58:07.522Z,0
2017-12-28T00:59:07.721Z,0
2017-12-28T01:00:07.453Z,0
2017-12-28T01:01:07.727Z,0
2017-12-28T01:02:07.492Z,0
2017-12-28T01:03:07.205Z,0
2017-12-28T01:04:07.790Z,0
2017-12-28T01:05:07.504Z,0
2017-12-28T01:06:07.523Z,0
2017-12-28T01:07:07.804Z,0
2017-12-28T01:08:07.277Z,0
2017-12-28T01:09:07.277Z,0
2017-12-28T01:10:07.633Z,0
2017-12-28T01:11:07.580Z,0
2017-12-28T01:12:07.594Z,0
2017-12-28T01:13:07.879Z,0
2017-12-28T01:14:07.891Z,0
2017-12-28T01:15:07.637Z,0
2017-12-28T01:16:07.664Z,0
2017-12-28T01:17:07.924Z,0
2017-12-28T01:18:08.222Z,0
2017-12-28T01:19:07.681Z,0
2017-12-28T01:20:08.015Z,0
2017-12-28T01:21:07.970Z,0
2017-12-28T01:22:07.726Z,0
2017-12-28T01:23:07.725Z,0
2017-12-28T01:24:07.746Z,0
2017-12-28T01:25:07.750Z,0
2017-12-28T01:26:08.051Z,0
2017-12-28T01:27:07.772Z,0
2017-12-28T01:28:07.789Z,0
2017-12-28T01:29:07.522Z,0
2017-12-28T01:30:07.825Z,0
2017-12-28T01:31:08.125Z,0
2017-12-28T01:32:07.847Z,0
2017-12-28T01:33:08.177Z,0
2017-12-28T01:34:07.876Z,0
2017-12-28T01:35:08.472Z,0
2017-12-28T01:36:07.881Z,0
2017-12-28T01:37:08.178Z,0
2017-12-28T01:38:08.182Z,0
2017-12-28T01:39:07.918Z,0
2017-12-28T01:40:07.933Z,0
2017-12-28T01:41:08.220Z,0
2017-12-28T01:42:08.238Z,0
2017-12-28T01:43:08.517Z,0
2017-12-28T01:44:07.980Z,0
2017-12-28T01:45:08.096Z,0
2017-12-28T01:46:08.287Z,0
2017-12-28T01:47:08.016Z,0
2017-12-28T01:48:07.783Z,0
2017-12-28T01:49:08.043Z,0
2017-12-28T01:50:08.384Z,0
2017-12-28T01:51:08.072Z,0
2017-12-28T01:52:08.086Z,0
2017-12-28T01:53:08.361Z,0
2017-12-28T01:54:08.658Z,0
2017-12-28T01:55:08.172Z,0
2017-12-28T01:56:08.683Z,0
2017-12-28T01:57:08.692Z,0
2017-12-28T01:58:08.155Z,0
2017-12-28T01:59:08.717Z,0
2017-12-28T02:00:08.179Z,0
2017-12-28T02:01:08.742Z,0
2017-12-28T02:02:08.787Z,0
2017-12-28T02:03:08.490Z,0
2017-12-28T02:04:08.506Z,0
2017-12-28T02:05:08.571Z,0
2017-12-28T02:06:08.806Z,0
2017-12-28T02:07:08.832Z,0
2017-12-28T02:08:08.002Z,0
2017-12-28T02:09:08.286Z,0
2017-12-28T02:10:08.310Z,0
2017-12-28T02:11:08.605Z,0
2017-12-28T02:12:08.637Z,0
2017-12-28T02:13:08.615Z,0
2017-12-28T02:14:08.632Z,0
2017-12-28T02:15:08.411Z,0
2017-12-28T02:16:08.663Z,0
2017-12-28T02:17:08.392Z,0
2017-12-28T02:18:08.679Z,0
2017-12-28T02:19:08.694Z,0
2017-12-28T02:20:08.696Z,0
2017-12-28T02:21:08.712Z,0
2017-12-28T02:22:08.453Z,0
2017-12-28T02:23:08.460Z,0
2017-12-28T02:24:08.194Z,0
2017-12-28T02:25:08.482Z,0
2017-12-28T02:26:08.781Z,0
2017-12-28T02:27:09.079Z,0
2017-12-28T02:28:08.248Z,0
2017-12-28T02:29:08.257Z,0
2017-12-28T02:30:08.957Z,0
2017-12-28T02:31:08.567Z,0
2017-12-28T02:32:08.576Z,0
2017-12-28T02:33:08.584Z,0
2017-12-28T02:34:09.123Z,0
2017-12-28T02:35:08.393Z,0
2017-12-28T02:36:08.913Z,0
2017-12-28T02:37:08.635Z,0
2017-12-28T02:38:09.197Z,0
2017-12-28T02:39:09.250Z,0
2017-12-28T02:40:08.960Z,0
2017-12-28T02:41:09.279Z,0
2017-12-28T02:42:08.712Z,0
2017-12-28T02:43:09.260Z,0
2017-12-28T02:44:09.267Z,0
2017-12-28T02:45:09.299Z,0
2017-12-28T02:46:09.025Z,0
2017-12-28T02:47:09.040Z,0
2017-12-28T02:48:08.490Z,0
2017-12-28T02:49:08.778Z,0
2017-12-28T02:50:09.412Z,0
2017-12-28T02:51:08.803Z,0
2017-12-28T02:52:09.374Z,0
2017-12-28T02:53:09.375Z,0
2017-12-28T02:54:09.121Z,0
2017-12-28T02:55:09.409Z,0
2017-12-28T02:56:09.415Z,0
2017-12-28T02:57:09.426Z,0
2017-12-28T02:58:08.898Z,0
2017-12-28T02:59:09.177Z,0
2017-12-28T03:00:08.912Z,0
2017-12-28T03:01:09.201Z,0
2017-12-28T03:02:08.944Z,0
2017-12-28T03:03:08.957Z,0
2017-12-28T03:04:08.964Z,0
2017-12-28T03:05:09.526Z,0
2017-12-28T03:06:09.009Z,0
2017-12-28T03:07:08.999Z,0
2017-12-28T03:08:08.739Z,0
2017-12-28T03:09:09.295Z,0
2017-12-28T03:10:09.315Z,0
2017-12-28T03:11:09.323Z,0
2017-12-28T03:12:09.061Z,0
2017-12-28T03:13:09.074Z,0
2017-12-28T03:14:09.082Z,0
2017-12-28T03:15:09.106Z,0
2017-12-28T03:16:09.440Z,0
2017-12-28T03:17:09.672Z,0
2017-12-28T03:18:09.141Z,0
2017-12-28T03:19:09.423Z,0
2017-12-28T03:20:09.161Z,0
2017-12-28T03:21:09.169Z,0
2017-12-28T03:22:09.458Z,0
2017-12-28T03:23:09.471Z,0
2017-12-28T03:24:08.938Z,0
2017-12-28T03:25:09.218Z,0
2017-12-28T03:26:09.560Z,0
2017-12-28T03:27:08.980Z,0
2017-12-28T03:28:09.265Z,0
2017-12-28T03:29:09.559Z,0
2017-12-28T03:30:09.843Z,0
2017-12-28T03:31:09.864Z,0
2017-12-28T03:32:09.598Z,0
2017-12-28T03:33:09.343Z,0
2017-12-28T03:34:09.879Z,0
2017-12-28T03:35:09.344Z,0
2017-12-28T03:36:09.201Z,0
2017-12-28T03:37:09.368Z,0
2017-12-28T03:38:09.377Z,0
2017-12-28T03:39:09.388Z,0
2017-12-28T03:40:09.401Z,0
2017-12-28T03:41:09.423Z,0
2017-12-28T03:42:09.984Z,0
2017-12-28T03:43:09.718Z,0
2017-12-28T03:44:09.727Z,0
2017-12-28T03:45:09.466Z,0
2017-12-28T03:46:09.798Z,0
2017-12-28T03:47:09.488Z,0
2017-12-28T03:48:09.774Z,0
2017-12-28T03:49:09.523Z,0
2017-12-28T03:50:09.864Z,0
2017-12-28T03:51:09.590Z,0
2017-12-28T03:52:09.550Z,0
2017-12-28T03:53:10.109Z,0
2017-12-28T03:54:09.596Z,0
2017-12-28T03:55:09.590Z,0
2017-12-28T03:56:09.649Z,0
2017-12-28T03:57:09.944Z,0
2017-12-28T03:58:09.906Z,0
2017-12-28T03:59:09.666Z,0
2017-12-28T04:00:09.932Z,0
2017-12-28T04:01:09.661Z,0
2017-12-28T04:02:09.401Z,0
2017-12-28T04:03:09.966Z,0
2017-12-28T04:04:09.704Z,0
2017-12-28T04:05:09.708Z,0
2017-12-28T04:06:09.730Z,0
2017-12-28T04:07:09.734Z,0
2017-12-28T04:08:10.297Z,0
2017-12-28T04:09:09.759Z,0
2017-12-28T04:10:09.991Z,0
2017-12-28T04:11:10.061Z,0
2017-12-28T04:12:10.073Z,0
2017-12-28T04:13:09.811Z,0
2017-12-28T04:14:10.096Z,0
2017-12-28T04:15:10.109Z,0
2017-12-28T04:16:10.118Z,0
2017-12-28T04:17:10.132Z,0
2017-12-28T04:18:10.147Z,0
2017-12-28T04:19:10.153Z,0
2017-12-28T04:20:10.167Z,0
2017-12-28T04:21:09.922Z,0
2017-12-28T04:22:10.203Z,0
2017-12-28T04:23:10.209Z,0
2017-12-28T04:24:10.224Z,0
2017-12-28T04:25:09.978Z,0
2017-12-28T04:26:10.019Z,0
2017-12-28T04:27:10.532Z,0
2017-12-28T04:28:09.989Z,0
2017-12-28T04:29:10.286Z,0
2017-12-28T04:30:10.287Z,0
2017-12-28T04:31:10.050Z,0
2017-12-28T04:32:10.039Z,0
2017-12-28T04:33:10.328Z,0
2017-12-28T04:34:09.793Z,0
2017-12-28T04:35:10.362Z,0
2017-12-28T04:36:09.814Z,0
2017-12-28T04:37:11.233Z,0
2017-12-28T04:38:10.401Z,0
2017-12-28T04:39:10.143Z,0
2017-12-28T04:40:10.429Z,0
2017-12-28T04:41:10.431Z,0
2017-12-28T04:42:10.447Z,0
2017-12-28T04:43:10.456Z,0
2017-12-28T04:44:10.189Z,0
2017-12-28T04:45:10.203Z,0
2017-12-28T04:46:10.562Z,0
2017-12-28T04:47:10.224Z,0
2017-12-28T04:48:10.242Z,0
2017-12-28T04:49:10.248Z,0
2017-12-28T04:50:10.261Z,0
2017-12-28T04:51:10.602Z,0
2017-12-28T04:52:10.012Z,0
2017-12-28T04:53:10.295Z,0
2017-12-28T04:54:10.032Z,0
2017-12-28T04:55:10.324Z,0
2017-12-28T04:56:10.937Z,0
2017-12-28T04:57:10.620Z,0
2017-12-28T04:58:10.909Z,0
2017-12-28T04:59:10.650Z,0
2017-12-28T05:00:10.383Z,0
2017-12-28T05:01:11.006Z,0
2017-12-28T05:02:10.686Z,0
2017-12-28T05:03:10.418Z,0
2017-12-28T05:04:10.711Z,0
2017-12-28T05:05:10.443Z,0
2017-12-28T05:06:10.603Z,0
2017-12-28T05:07:10.192Z,0
2017-12-28T05:08:10.761Z,0
2017-12-28T05:09:11.055Z,0
2017-12-28T05:10:10.777Z,0
2017-12-28T05:11:10.246Z,0
2017-12-28T05:12:10.803Z,0
2017-12-28T05:13:11.094Z,0
2017-12-28T05:14:10.303Z,0
2017-12-28T05:15:10.852Z,0
2017-12-28T05:16:10.576Z,0
2017-12-28T05:17:10.588Z,0
2017-12-28T05:18:11.158Z,0
2017-12-28T05:19:10.613Z,0
2017-12-28T05:20:10.628Z,0
2017-12-28T05:21:10.690Z,0
2017-12-28T05:22:11.202Z,0
2017-12-28T05:23:11.213Z,0
2017-12-28T05:24:11.237Z,0
2017-12-28T05:25:10.687Z,0
2017-12-28T05:26:10.717Z,0
2017-12-28T05:27:10.709Z,0
2017-12-28T05:28:11.006Z,0
2017-12-28T05:29:10.744Z,0
2017-12-28T05:30:11.066Z,0
2017-12-28T05:31:10.761Z,0
2017-12-28T05:32:11.054Z,0
2017-12-28T05:33:10.909Z,0
2017-12-28T05:34:11.044Z,0
2017-12-28T05:35:11.088Z,0
2017-12-28T05:36:10.821Z,0
2017-12-28T05:37:11.111Z,0
2017-12-28T05:38:11.045Z,0
2017-12-28T05:39:10.864Z,0
2017-12-28T05:40:10.872Z,0
2017-12-28T05:41:10.901Z,0
2017-12-28T05:42:11.443Z,0
2017-12-28T05:43:10.633Z,0
2017-12-28T05:44:11.470Z,0
2017-12-28T05:45:10.932Z,0
2017-12-28T05:46:10.950Z,0
2017-12-28T05:47:11.505Z,0
2017-12-28T05:48:10.968Z,0
2017-12-28T05:49:11.261Z,0
2017-12-28T05:50:10.715Z,0
2017-12-28T05:51:11.012Z,0
2017-12-28T05:52:11.296Z,0
2017-12-28T05:53:11.032Z,0
2017-12-28T05:54:10.773Z,0
2017-12-28T05:55:11.051Z,0
2017-12-28T05:56:10.790Z,0
2017-12-28T05:57:11.635Z,0
2017-12-28T05:58:11.367Z,0
2017-12-28T05:59:11.382Z,0
2017-12-28T06:00:11.391Z,0
2017-12-28T06:01:11.125Z,0
2017-12-28T06:02:11.145Z,0
2017-12-28T06:03:11.429Z,0
2017-12-28T06:04:11.434Z,0
2017-12-28T06:05:11.173Z,0
2017-12-28T06:06:11.740Z,0
2017-12-28T06:07:10.933Z,0
2017-12-28T06:08:11.208Z,0
2017-12-28T06:09:11.783Z,0
2017-12-28T06:10:11.791Z,0
2017-12-28T06:11:11.517Z,0
2017-12-28T06:12:11.259Z,0
2017-12-28T06:13:11.826Z,0
2017-12-28T06:14:11.007Z,0
2017-12-28T06:15:11.575Z,0
2017-12-28T06:16:11.313Z,0
2017-12-28T06:17:11.597Z,0
2017-12-28T06:18:11.333Z,0
2017-12-28T06:19:11.344Z,0
2017-12-28T06:20:11.359Z,0
2017-12-28T06:21:11.373Z,0
2017-12-28T06:22:11.380Z,0
2017-12-28T06:23:11.670Z,0
2017-12-28T06:24:11.137Z,0
2017-12-28T06:25:11.986Z,0
2017-12-28T06:26:11.704Z,0
2017-12-28T06:27:11.170Z,0
2017-12-28T06:28:11.457Z,0
2017-12-28T06:29:11.739Z,0
2017-12-28T06:30:11.482Z,0
2017-12-28T06:31:11.491Z,0
2017-12-28T06:32:11.510Z,0
2017-12-28T06:33:12.066Z,0
2017-12-28T06:34:11.803Z,0
2017-12-28T06:35:12.093Z,0
2017-12-28T06:36:11.557Z,0
2017-12-28T06:37:11.573Z,0
2017-12-28T06:38:11.862Z,0
2017-12-28T06:39:11.585Z,0
2017-12-28T06:40:11.873Z,0
2017-12-28T06:41:11.889Z,0
2017-12-28T06:42:12.182Z,0
2017-12-28T06:43:11.636Z,0
2017-12-28T06:44:11.650Z,0
2017-12-28T06:45:11.763Z,0
2017-12-28T06:46:11.945Z,0
2017-12-28T06:47:12.299Z,0
2017-12-28T06:48:11.974Z,0
2017-12-28T06:49:11.986Z,0
2017-12-28T06:50:11.723Z,0
2017-12-28T06:51:12.014Z,0
2017-12-28T06:52:11.470Z,0
2017-12-28T06:53:11.766Z,0
2017-12-28T06:54:12.047Z,0
2017-12-28T06:55:11.786Z,0
2017-12-28T06:56:12.353Z,0
2017-12-28T06:57:12.081Z,0
2017-12-28T06:58:12.099Z,0
2017-12-28T06:59:11.835Z,0
2017-12-28T07:00:12.391Z,0
2017-12-28T07:01:11.861Z,0
2017-12-28T07:02:11.593Z,0
2017-12-28T07:03:12.151Z,0
2017-12-28T07:04:12.169Z,0
2017-12-28T07:05:11.905Z,4
2017-12-28T07:06:11.911Z,4
2017-12-28T07:07:12.260Z,4
2017-12-28T07:08:11.663Z,4
2017-12-28T07:09:11.952Z,4
2017-12-28T07:10:12.242Z,4
2017-12-28T07:11:12.249Z,0
2017-12-28T07:12:11.718Z,4
2017-12-28T07:13:12.549Z,4
2017-12-28T07:14:12.066Z,4
2017-12-28T07:15:12.601Z,4
2017-12-28T07:16:12.318Z,4
2017-12-28T07:17:12.102Z,4
2017-12-28T07:18:11.788Z,4
2017-12-28T07:19:12.353Z,12
2017-12-28T07:20:11.830Z,8
2017-12-28T07:21:12.103Z,12
2017-12-28T07:22:11.833Z,8
2017-12-28T07:23:12.123Z,12
2017-12-28T07:24:12.415Z,12
2017-12-28T07:25:11.873Z,16
2017-12-28T07:26:12.486Z,16
2017-12-28T07:27:12.172Z,16
2017-12-28T07:28:12.190Z,20
2017-12-28T07:29:12.195Z,16
2017-12-28T07:30:12.762Z,20
2017-12-28T07:31:12.805Z,24
2017-12-28T07:32:12.504Z,28
2017-12-28T07:33:11.970Z,24
2017-12-28T07:34:12.818Z,28
2017-12-28T07:35:12.268Z,28
2017-12-28T07:36:12.007Z,28
2017-12-28T07:37:12.296Z,32
2017-12-28T07:38:12.109Z,36
2017-12-28T07:39:12.591Z,36
2017-12-28T07:40:12.053Z,40
2017-12-28T07:41:12.619Z,44
2017-12-28T07:42:12.919Z,44
2017-12-28T07:43:12.669Z,52
2017-12-28T07:44:12.382Z,44
2017-12-28T07:45:12.388Z,40
2017-12-28T07:46:12.726Z,44
2017-12-28T07:47:12.709Z,48
2017-12-28T07:48:12.976Z,52
2017-12-28T07:49:12.781Z,52
2017-12-28T07:50:12.455Z,56
2017-12-28T07:51:12.739Z,52
2017-12-28T07:52:12.474Z,56
2017-12-28T07:53:12.762Z,52
2017-12-28T07:54:12.500Z,56
2017-12-28T07:55:12.514Z,56
2017-12-28T07:56:12.245Z,56
2017-12-28T07:57:12.547Z,60
2017-12-28T07:58:12.844Z,64
2017-12-28T07:59:12.578Z,68
2017-12-28T08:00:12.295Z,72
2017-12-28T08:01:12.854Z,80
2017-12-28T08:02:12.870Z,80
2017-12-28T08:03:12.330Z,76
2017-12-28T08:04:12.890Z,76
2017-12-28T08:05:12.906Z,76
2017-12-28T08:06:12.640Z,76
2017-12-28T08:07:12.978Z,76
2017-12-28T08:08:12.669Z,80
2017-12-28T08:09:12.676Z,80
2017-12-28T08:10:12.973Z,84
2017-12-28T08:11:12.703Z,88
2017-12-28T08:12:12.437Z,92
2017-12-28T08:13:13.275Z,92
2017-12-28T08:14:12.462Z,92
2017-12-28T08:15:12.765Z,104
2017-12-28T08:16:12.819Z,108
2017-12-28T08:17:13.049Z,116
2017-12-28T08:18:12.517Z,116
2017-12-28T08:19:12.593Z,124
2017-12-28T08:20:12.548Z,128
2017-12-28T08:21:12.818Z,132
2017-12-28T08:22:12.834Z,144
2017-12-28T08:23:13.117Z,164
2017-12-28T08:24:13.146Z,180
2017-12-28T08:25:13.142Z,196
2017-12-28T08:26:12.603Z,208
2017-12-28T08:27:12.890Z,208
2017-12-28T08:28:13.177Z,232
2017-12-28T08:29:13.472Z,228
2017-12-28T08:30:13.205Z,240
2017-12-28T08:31:13.218Z,240
2017-12-28T08:32:12.959Z,240
2017-12-28T08:33:13.235Z,240
2017-12-28T08:34:12.976Z,240
2017-12-28T08:35:13.270Z,236
2017-12-28T08:36:12.998Z,240
2017-12-28T08:37:13.008Z,240
2017-12-28T08:38:13.291Z,240
2017-12-28T08:39:13.310Z,240
2017-12-28T08:40:12.768Z,244
2017-12-28T08:41:13.332Z,236
2017-12-28T08:42:13.619Z,240
2017-12-28T08:43:13.358Z,244
2017-12-28T08:44:13.091Z,260
2017-12-28T08:45:12.827Z,280
2017-12-28T08:46:13.387Z,296
2017-12-28T08:47:13.137Z,308
2017-12-28T08:48:13.140Z,316
2017-12-28T08:49:13.150Z,328
2017-12-28T08:50:13.444Z,340
2017-12-28T08:51:13.197Z,348
2017-12-28T08:52:13.463Z,356
2017-12-28T08:53:13.753Z,372
2017-12-28T08:54:13.491Z,384
2017-12-28T08:55:12.947Z,392
2017-12-28T08:56:13.514Z,392
2017-12-28T08:57:13.518Z,400
2017-12-28T08:58:13.570Z,408
2017-12-28T08:59:13.544Z,416
2017-12-28T09:00:13.576Z,412
2017-12-28T09:01:13.982Z,416
2017-12-28T09:02:13.751Z,424
2017-12-28T09:03:13.322Z,420
2017-12-28T09:04:13.626Z,420
2017-12-28T09:05:13.341Z,424
2017-12-28T09:06:13.627Z,428
2017-12-28T09:07:13.093Z,424
2017-12-28T09:08:13.370Z,416
2017-12-28T09:09:13.941Z,412
2017-12-28T09:10:13.405Z,424
2017-12-28T09:11:13.413Z,440
2017-12-28T09:12:13.699Z,460
2017-12-28T09:13:13.439Z,476
2017-12-28T09:14:14.011Z,484
2017-12-28T09:15:13.734Z,496
2017-12-28T09:16:13.744Z,508
2017-12-28T09:17:13.207Z,508
2017-12-28T09:18:13.495Z,512
2017-12-28T09:19:13.234Z,516
2017-12-28T09:20:13.793Z,516
2017-12-28T09:21:13.532Z,528
2017-12-28T09:22:13.539Z,540
2017-12-28T09:23:13.274Z,544
2017-12-28T09:24:13.842Z,536
2017-12-28T09:25:13.577Z,540
2017-12-28T09:26:14.165Z,544
2017-12-28T09:27:13.599Z,548
2017-12-28T09:28:13.897Z,552
2017-12-28T09:29:13.900Z,564
2017-12-28T09:30:13.635Z,572
2017-12-28T09:31:13.647Z,580
2017-12-28T09:32:13.934Z,588
2017-12-28T09:33:13.951Z,600
2017-12-28T09:34:13.956Z,616
2017-12-28T09:35:13.968Z,624
2017-12-28T09:36:14.257Z,628
2017-12-28T09:37:13.992Z,624
2017-12-28T09:38:13.775Z,616
2017-12-28T09:39:13.744Z,620
2017-12-28T09:40:13.804Z,636
2017-12-28T09:41:13.764Z,652
2017-12-28T09:42:14.053Z,664
2017-12-28T09:43:13.838Z,668
2017-12-28T09:44:14.080Z,680
2017-12-28T09:45:13.535Z,692
2017-12-28T09:46:14.096Z,692
2017-12-28T09:47:14.401Z,684
2017-12-28T09:48:13.896Z,672
2017-12-28T09:49:13.869Z,660
2017-12-28T09:50:13.872Z,636
2017-12-28T09:51:13.608Z,620
2017-12-28T09:52:14.447Z,616
2017-12-28T09:53:13.678Z,616
2017-12-28T09:54:13.922Z,620
2017-12-28T09:55:13.934Z,628
2017-12-28T09:56:14.490Z,636
2017-12-28T09:57:14.228Z,652
2017-12-28T09:58:14.242Z,660
2017-12-28T09:59:13.978Z,664
2017-12-28T10:00:14.260Z,668
2017-12-28T10:01:13.725Z,680
2017-12-28T10:02:13.740Z,684
2017-12-28T10:03:14.313Z,680
2017-12-28T10:04:14.034Z,680
2017-12-28T10:05:14.060Z,688
2017-12-28T10:06:14.339Z,688
2017-12-28T10:07:14.073Z,688
2017-12-28T10:08:14.360Z,692
2017-12-28T10:09:14.369Z,700
2017-12-28T10:10:14.381Z,712
2017-12-28T10:11:14.675Z,728
2017-12-28T10:12:14.407Z,744
2017-12-28T10:13:14.141Z,748
2017-12-28T10:14:14.427Z,752
2017-12-28T10:15:14.759Z,744
2017-12-28T10:16:14.182Z,732
2017-12-28T10:17:14.203Z,716
2017-12-28T10:18:14.208Z,704
2017-12-28T10:19:14.216Z,692
2017-12-28T10:20:14.507Z,688
2017-12-28T10:21:14.789Z,688
2017-12-28T10:22:13.974Z,688
2017-12-28T10:23:14.536Z,700
2017-12-28T10:24:14.545Z,704
2017-12-28T10:25:14.837Z,720
2017-12-28T10:26:14.586Z,736
2017-12-28T10:27:14.859Z,740
2017-12-28T10:28:14.599Z,772
2017-12-28T10:29:14.609Z,796
2017-12-28T10:30:14.905Z,812
2017-12-28T10:31:14.355Z,820
2017-12-28T10:32:14.641Z,804
2017-12-28T10:33:14.389Z,772
2017-12-28T10:34:14.116Z,724
2017-12-28T10:35:14.683Z,736
2017-12-28T10:36:14.417Z,740
2017-12-28T10:37:14.736Z,716
2017-12-28T10:38:14.438Z,640
2017-12-28T10:39:14.448Z,668
2017-12-28T10:40:14.463Z,660
2017-12-28T10:41:14.204Z,632
2017-12-28T10:42:14.770Z,720
2017-12-28T10:43:14.770Z,720
2017-12-28T10:44:14.510Z,720
2017-12-28T10:45:14.527Z,720
2017-12-28T10:46:15.088Z,708
2017-12-28T10:47:14.828Z,704
2017-12-28T10:48:14.836Z,700
2017-12-28T10:49:14.848Z,676
2017-12-28T10:50:14.582Z,640
2017-12-28T10:51:14.324Z,664
2017-12-28T10:52:14.880Z,668
2017-12-28T10:53:14.615Z,668
2017-12-28T10:54:14.952Z,680
2017-12-28T10:55:14.940Z,692
2017-12-28T10:56:14.931Z,716
2017-12-28T10:57:14.942Z,712
2017-12-28T10:58:14.681Z,708
2017-12-28T10:59:15.237Z,672
2017-12-28T11:00:14.984Z,584
2017-12-28T11:01:14.990Z,696
2017-12-28T11:02:15.001Z,676
2017-12-28T11:03:15.012Z,600
2017-12-28T11:04:14.800Z,644
2017-12-28T11:05:15.043Z,664
2017-12-28T11:06:15.051Z,668
2017-12-28T11:07:15.078Z,720
2017-12-28T11:08:15.070Z,708
2017-12-28T11:09:14.808Z,476
2017-12-28T11:10:15.103Z,680
2017-12-28T11:11:14.834Z,728
2017-12-28T11:12:14.851Z,736
2017-12-28T11:13:15.135Z,772
2017-12-28T11:14:15.142Z,768
2017-12-28T11:15:15.431Z,768
2017-12-28T11:16:14.899Z,768
2017-12-28T11:17:14.908Z,764
2017-12-28T11:18:15.195Z,760
2017-12-28T11:19:15.224Z,760
2017-12-28T11:20:15.221Z,756
2017-12-28T11:21:15.515Z,664
2017-12-28T11:22:14.697Z,648
2017-12-28T11:23:15.530Z,612
2017-12-28T11:24:15.327Z,560
2017-12-28T11:25:15.004Z,504
2017-12-28T11:26:15.292Z,532
2017-12-28T11:27:14.758Z,392
2017-12-28T11:28:15.590Z,388
2017-12-28T11:29:15.601Z,332
2017-12-28T11:30:15.341Z,376
2017-12-28T11:31:15.079Z,404
2017-12-28T11:32:14.819Z,476
2017-12-28T11:33:15.103Z,428
2017-12-28T11:34:15.112Z,560
2017-12-28T11:35:15.405Z,592
2017-12-28T11:36:15.137Z,428
2017-12-28T11:37:15.424Z,484
2017-12-28T11:38:15.488Z,496
2017-12-28T11:39:15.175Z,600
2017-12-28T11:40:15.193Z,516
2017-12-28T11:41:15.751Z,508
2017-12-28T11:42:14.946Z,564
2017-12-28T11:43:15.776Z,568
2017-12-28T11:44:15.828Z,484
2017-12-28T11:45:15.522Z,524
2017-12-28T11:46:15.263Z,316
2017-12-28T11:47:15.269Z,364
2017-12-28T11:48:15.284Z,380
2017-12-28T11:49:15.947Z,412
2017-12-28T11:50:15.304Z,336
2017-12-28T11:51:15.321Z,428
2017-12-28T11:52:15.656Z,380
2017-12-28T11:53:15.349Z,320
2017-12-28T11:54:15.419Z,328
2017-12-28T11:55:15.919Z,384
2017-12-28T11:56:15.926Z,492
2017-12-28T11:57:15.393Z,448
2017-12-28T11:58:15.680Z,412
2017-12-28T11:59:15.970Z,316
2017-12-28T12:00:15.428Z,392
2017-12-28T12:01:15.168Z,632
2017-12-28T12:02:15.471Z,536
2017-12-28T12:03:15.198Z,460
2017-12-28T12:04:16.026Z,376
2017-12-28T12:05:15.765Z,448
2017-12-28T12:06:15.829Z,400
2017-12-28T12:07:16.076Z,500
2017-12-28T12:08:15.532Z,520
2017-12-28T12:09:15.588Z,504
2017-12-28T12:10:15.553Z,452
2017-12-28T12:11:15.843Z,676
2017-12-28T12:12:15.370Z,780
2017-12-28T12:13:15.623Z,748
2017-12-28T12:14:15.604Z,788
2017-12-28T12:15:15.617Z,676
2017-12-28T12:16:15.708Z,496
2017-12-28T12:17:15.919Z,584
2017-12-28T12:18:16.207Z,616
2017-12-28T12:19:15.719Z,452
2017-12-28T12:20:16.232Z,400
2017-12-28T12:21:16.248Z,440
2017-12-28T12:22:15.983Z,528
2017-12-28T12:23:15.714Z,628
2017-12-28T12:24:16.278Z,676
2017-12-28T12:25:15.739Z,692
2017-12-28T12:26:16.032Z,484
2017-12-28T12:27:16.316Z,444
2017-12-28T12:28:16.325Z,376
2017-12-28T12:29:16.413Z,292
2017-12-28T12:30:15.526Z,432
2017-12-28T12:31:16.086Z,556
2017-12-28T12:32:16.105Z,660
2017-12-28T12:33:16.117Z,660
2017-12-28T12:34:15.579Z,656
2017-12-28T12:35:16.417Z,588
2017-12-28T12:36:15.876Z,472
2017-12-28T12:37:16.439Z,596
2017-12-28T12:38:16.189Z,696
2017-12-28T12:39:15.638Z,716
2017-12-28T12:40:16.205Z,752
2017-12-28T12:41:15.940Z,764
2017-12-28T12:42:16.495Z,744
2017-12-28T12:43:16.264Z,760
2017-12-28T12:44:16.580Z,816
2017-12-28T12:45:15.988Z,692
2017-12-28T12:46:16.627Z,612
2017-12-28T12:47:16.018Z,824
2017-12-28T12:48:16.581Z,764
2017-12-28T12:49:16.090Z,724
2017-12-28T12:50:16.326Z,804
2017-12-28T12:51:16.059Z,844
2017-12-28T12:52:16.347Z,828
2017-12-28T12:53:16.364Z,748
2017-12-28T12:54:16.375Z,584
2017-12-28T12:55:16.391Z,788
2017-12-28T12:56:15.876Z,836
2017-12-28T12:57:16.408Z,724
2017-12-28T12:58:16.428Z,544
2017-12-28T12:59:16.159Z,680
2017-12-28T13:00:16.201Z,644
2017-12-28T13:01:16.477Z,428
2017-12-28T13:02:16.747Z,448
2017-12-28T13:03:16.758Z,620
2017-12-28T13:04:16.501Z,568
2017-12-28T13:05:16.238Z,424
2017-12-28T13:06:16.244Z,472
2017-12-28T13:07:16.548Z,396
2017-12-28T13:08:16.275Z,320
2017-12-28T13:09:16.557Z,404
2017-12-28T13:10:16.300Z,392
2017-12-28T13:11:16.652Z,396
2017-12-28T13:12:16.330Z,592
2017-12-28T13:13:16.611Z,528
2017-12-28T13:14:16.622Z,540
2017-12-28T13:15:16.641Z,604
2017-12-28T13:16:16.645Z,476
2017-12-28T13:17:16.712Z,424
2017-12-28T13:18:16.959Z,324
2017-12-28T13:19:16.423Z,200
2017-12-28T13:20:16.434Z,272
2017-12-28T13:21:16.228Z,376
2017-12-28T13:22:16.729Z,272
2017-12-28T13:23:17.032Z,328
2017-12-28T13:24:16.473Z,420
2017-12-28T13:25:16.770Z,428
2017-12-28T13:26:16.227Z,428
2017-12-28T13:27:16.520Z,444
2017-12-28T13:28:16.799Z,472
2017-12-28T13:29:16.536Z,468
2017-12-28T13:30:16.827Z,468
2017-12-28T13:31:16.563Z,476
2017-12-28T13:32:16.854Z,480
2017-12-28T13:33:16.860Z,472
2017-12-28T13:34:16.882Z,468
2017-12-28T13:35:16.900Z,480
2017-12-28T13:36:17.178Z,484
2017-12-28T13:37:16.915Z,480
2017-12-28T13:38:16.651Z,480
2017-12-28T13:39:16.666Z,472
2017-12-28T13:40:16.685Z,512
2017-12-28T13:41:16.411Z,516
2017-12-28T13:42:16.702Z,496
2017-12-28T13:43:16.725Z,456
2017-12-28T13:44:16.781Z,356
2017-12-28T13:45:16.737Z,344
2017-12-28T13:46:16.757Z,340
2017-12-28T13:47:16.492Z,380
2017-12-28T13:48:17.051Z,360
2017-12-28T13:49:16.794Z,304
2017-12-28T13:50:17.108Z,360
2017-12-28T13:51:17.093Z,348
2017-12-28T13:52:17.115Z,352
2017-12-28T13:53:17.122Z,344
2017-12-28T13:54:17.401Z,348
2017-12-28T13:55:17.139Z,344
2017-12-28T13:56:16.876Z,340
2017-12-28T13:57:17.438Z,332
2017-12-28T13:58:17.182Z,332
2017-12-28T13:59:16.917Z,340
2017-12-28T14:00:17.502Z,316
2017-12-28T14:01:17.490Z,300
2017-12-28T14:02:17.508Z,276
2017-12-28T14:03:17.244Z,292
2017-12-28T14:04:16.989Z,292
2017-12-28T14:05:16.989Z,300
2017-12-28T14:06:17.284Z,308
2017-12-28T14:07:17.570Z,304
2017-12-28T14:08:16.754Z,296
2017-12-28T14:09:17.367Z,300
2017-12-28T14:10:17.057Z,296
2017-12-28T14:11:17.616Z,284
2017-12-28T14:12:17.353Z,280
2017-12-28T14:13:17.375Z,264
2017-12-28T14:14:17.119Z,244
2017-12-28T14:15:17.391Z,224
2017-12-28T14:16:17.402Z,208
2017-12-28T14:17:17.692Z,196
2017-12-28T14:18:17.711Z,188